createdAt,value
2022-12-18T00:02:01.520Z,7.40
2022-12-18T00:04:29.511Z,10.80
2022-12-18T00:06:57.105Z,10.17
2022-12-18T00:09:24.938Z,8.13
2022-12-18T00:17:13.665Z,8.23
2022-12-18T00:19:41.099Z,9.13
2022-12-18T00:22:08.659Z,9.77
2022-12-18T00:24:36.169Z,8.47
2022-12-18T00:27:03.861Z,8.43
2022-12-18T00:29:31.378Z,8.37
2022-12-18T00:32:00.405Z,8.20
2022-12-18T00:34:28.058Z,9.07
2022-12-18T00:36:55.495Z,9.33
2022-12-18T00:39:23.283Z,8.47
2022-12-18T00:42:09.262Z,10.87
2022-12-18T00:44:36.841Z,8.43
2022-12-18T00:47:04.431Z,9.60
2022-12-18T00:49:32.251Z,8.13
2022-12-18T00:51:59.776Z,7.63
2022-12-18T00:54:27.377Z,9.57
2022-12-18T00:56:56.240Z,7.13
2022-12-18T00:59:23.821Z,8.23
2022-12-18T01:01:52.062Z,9.00
2022-12-18T01:04:21.588Z,7.60
2022-12-18T01:06:49.483Z,7.97
2022-12-18T01:09:16.940Z,8.47
2022-12-18T01:11:44.470Z,8.17
2022-12-18T01:14:12.200Z,10.00
2022-12-18T01:16:39.894Z,8.07
2022-12-18T01:19:07.879Z,10.03
2022-12-18T01:21:35.493Z,8.27
2022-12-18T01:24:06.150Z,9.90
2022-12-18T01:26:34.706Z,8.63
2022-12-18T01:29:02.409Z,6.93
2022-12-18T01:31:32.895Z,8.00
2022-12-18T01:34:05.559Z,9.57
2022-12-18T01:36:38.333Z,8.30
2022-12-18T01:39:08.861Z,8.73
2022-12-18T01:41:55.081Z,8.97
2022-12-18T01:44:47.732Z,6.50
2022-12-18T01:47:38.615Z,7.50
2022-12-18T01:50:22.510Z,8.23
2022-12-18T01:53:03.662Z,7.60
2022-12-18T01:55:39.037Z,6.83
2022-12-18T01:58:06.999Z,9.10
2022-12-18T02:00:35.159Z,7.20
2022-12-18T02:03:03.050Z,8.17
2022-12-18T02:05:49.260Z,6.63
2022-12-18T02:08:40.732Z,13.07
2022-12-18T02:11:30.031Z,9.43
2022-12-18T02:14:15.567Z,7.30
2022-12-18T02:16:56.907Z,7.53
2022-12-18T02:19:42.722Z,9.10
2022-12-18T02:22:19.322Z,7.27
2022-12-18T02:25:01.133Z,6.50
2022-12-18T02:27:33.505Z,7.27
2022-12-18T02:30:03.432Z,6.93
2022-12-18T02:32:39.327Z,7.37
2022-12-18T02:35:10.692Z,8.83
2022-12-18T02:37:41.145Z,7.73
2022-12-18T02:40:09.952Z,7.00
2022-12-18T02:42:40.432Z,8.60
2022-12-18T02:45:10.778Z,6.77
2022-12-18T02:47:42.126Z,7.27
2022-12-18T02:50:28.369Z,7.00
2022-12-18T02:53:12.780Z,6.43
2022-12-18T02:55:43.261Z,6.13
2022-12-18T02:58:25.762Z,6.17
2022-12-18T03:01:10.856Z,6.50
2022-12-18T03:04:01.885Z,7.97
2022-12-18T03:06:45.959Z,5.70
2022-12-18T03:09:22.871Z,6.37
2022-12-18T03:12:16.650Z,6.35
2022-12-18T03:14:46.807Z,5.77
2022-12-18T03:17:22.140Z,7.07
2022-12-18T03:19:52.803Z,5.93
2022-12-18T03:22:25.815Z,6.07
2022-12-18T03:24:57.690Z,5.37
2022-12-18T03:27:27.416Z,5.93
2022-12-18T03:30:14.180Z,6.80
2022-12-18T03:32:51.925Z,7.07
2022-12-18T03:35:30.780Z,7.03
2022-12-18T03:37:59.129Z,6.13
2022-12-18T03:40:54.360Z,6.50
2022-12-18T03:43:51.449Z,5.63
2022-12-18T03:46:31.949Z,6.35
2022-12-18T03:49:18.162Z,7.93
2022-12-18T03:51:53.657Z,7.67
2022-12-18T03:54:22.564Z,5.20
2022-12-18T03:57:07.902Z,6.07
2022-12-18T03:59:38.872Z,5.87
2022-12-18T04:02:09.470Z,4.60
2022-12-18T04:04:40.637Z,6.57
2022-12-18T04:07:08.960Z,5.43
2022-12-18T04:09:41.114Z,6.17
2022-12-18T04:12:10.541Z,4.90
2022-12-18T04:14:38.176Z,5.87
2022-12-18T04:17:09.039Z,4.97
2022-12-18T04:19:36.580Z,5.83
2022-12-18T04:22:04.935Z,5.60
2022-12-18T04:24:40.034Z,4.63
2022-12-18T04:27:13.944Z,4.70
2022-12-18T04:29:45.979Z,5.87
2022-12-18T04:32:13.539Z,4.90
2022-12-18T04:34:43.687Z,7.47
2022-12-18T04:37:12.328Z,5.07
2022-12-18T04:39:40.400Z,5.80
2022-12-18T04:42:15.123Z,5.97
2022-12-18T04:44:42.702Z,5.57
2022-12-18T04:47:10.130Z,5.13
2022-12-18T04:49:37.714Z,5.90
2022-12-18T04:52:05.341Z,6.33
2022-12-18T04:54:35.743Z,5.37
2022-12-18T04:57:03.289Z,5.03
2022-12-18T04:59:30.856Z,5.37
2022-12-18T05:01:58.478Z,5.47
2022-12-18T05:04:26.041Z,5.97
2022-12-18T05:06:53.615Z,6.30
2022-12-18T05:09:21.070Z,5.50
2022-12-18T05:11:48.643Z,6.93
2022-12-18T05:14:16.458Z,5.73
2022-12-18T05:16:43.989Z,5.83
2022-12-18T05:19:11.742Z,5.50
2022-12-18T05:21:41.796Z,6.13
2022-12-18T05:24:09.647Z,5.40
2022-12-18T05:26:37.170Z,6.33
2022-12-18T05:29:04.693Z,7.27
2022-12-18T05:31:37.490Z,4.90
2022-12-18T05:34:07.061Z,6.63
2022-12-18T05:36:34.585Z,5.67
2022-12-18T05:39:02.248Z,5.50
2022-12-18T05:41:29.883Z,5.83
2022-12-18T05:43:57.681Z,5.00
2022-12-18T05:46:25.525Z,5.10
2022-12-18T05:48:53.184Z,7.10
2022-12-18T05:51:23.256Z,5.83
2022-12-18T05:53:53.571Z,5.80
2022-12-18T05:56:23.508Z,5.03
2022-12-18T05:58:55.184Z,6.40
2022-12-18T06:01:26.003Z,5.97
2022-12-18T06:03:54.350Z,6.33
2022-12-18T06:06:25.471Z,5.90
2022-12-18T06:08:54.282Z,6.13
2022-12-18T06:11:26.639Z,5.00
2022-12-18T06:13:58.691Z,5.73
2022-12-18T06:16:28.325Z,5.47
2022-12-18T06:19:03.478Z,6.67
2022-12-18T06:21:32.197Z,6.80
2022-12-18T06:24:01.177Z,6.00
2022-12-18T06:26:28.882Z,6.67
2022-12-18T06:28:57.166Z,6.70
2022-12-18T06:31:26.142Z,4.97
2022-12-18T06:33:54.204Z,4.17
2022-12-18T06:36:22.414Z,6.27
2022-12-18T06:38:50.187Z,4.10
2022-12-18T06:41:20.435Z,5.70
2022-12-18T06:43:48.274Z,4.87
2022-12-18T06:46:15.986Z,5.00
2022-12-18T06:48:43.632Z,6.23
2022-12-18T06:51:11.104Z,6.33
2022-12-18T06:53:41.365Z,5.33
2022-12-18T06:56:10.739Z,6.23
2022-12-18T06:58:40.310Z,5.00
2022-12-18T07:01:11.540Z,4.60
2022-12-18T07:03:41.992Z,6.27
2022-12-18T07:06:18.711Z,6.37
2022-12-18T07:08:47.611Z,5.73
2022-12-18T07:11:16.139Z,5.33
2022-12-18T07:13:43.941Z,4.13
2022-12-18T07:16:20.833Z,5.83
2022-12-18T07:18:50.035Z,5.57
2022-12-18T07:21:20.359Z,5.33
2022-12-18T07:23:49.416Z,5.43
2022-12-18T07:26:19.464Z,5.50
2022-12-18T07:28:47.715Z,5.20
2022-12-18T07:31:18.346Z,5.87
2022-12-18T07:33:46.522Z,4.03
2022-12-18T07:36:15.465Z,6.13
2022-12-18T07:38:43.346Z,5.63
2022-12-18T07:41:14.349Z,5.83
2022-12-18T07:43:42.761Z,5.77
2022-12-18T07:46:13.349Z,5.70
2022-12-18T07:48:48.202Z,5.60
2022-12-18T07:51:18.794Z,4.47
2022-12-18T07:53:48.772Z,6.47
2022-12-18T07:56:30.099Z,4.70
2022-12-18T07:58:59.713Z,6.47
2022-12-18T08:01:30.074Z,4.60
2022-12-18T08:03:58.743Z,4.97
2022-12-18T08:06:28.550Z,6.97
2022-12-18T08:08:58.892Z,5.80
2022-12-18T08:11:29.791Z,5.23
2022-12-18T08:13:58.731Z,5.30
2022-12-18T08:16:27.014Z,5.23
2022-12-18T08:18:55.368Z,5.20
2022-12-18T08:21:27.390Z,5.03
2022-12-18T08:23:57.085Z,4.57
2022-12-18T08:26:25.867Z,5.03
2022-12-18T08:28:55.933Z,5.37
2022-12-18T08:31:24.639Z,4.87
2022-12-18T08:33:55.516Z,5.47
2022-12-18T08:36:27.050Z,5.93
2022-12-18T08:38:55.058Z,4.50
2022-12-18T08:41:22.863Z,6.17
2022-12-18T08:44:11.517Z,6.10
2022-12-18T08:46:43.331Z,5.67
2022-12-18T08:49:12.388Z,4.37
2022-12-18T08:51:40.918Z,5.43
2022-12-18T08:54:08.677Z,4.70
2022-12-18T08:56:36.232Z,6.53
2022-12-18T08:59:03.937Z,6.23
2022-12-18T09:01:31.672Z,7.47
2022-12-18T09:03:59.713Z,5.40
2022-12-18T09:06:27.694Z,5.60
2022-12-18T09:08:55.317Z,3.73
2022-12-18T09:11:27.767Z,5.77
2022-12-18T09:13:56.565Z,6.43
2022-12-18T09:16:30.385Z,6.30
2022-12-18T09:19:00.869Z,4.53
2022-12-18T09:21:31.315Z,4.13
2022-12-18T09:24:00.833Z,5.33
2022-12-18T09:26:28.729Z,4.50
2022-12-18T09:28:57.048Z,5.33
2022-12-18T09:31:25.804Z,5.10
2022-12-18T09:33:53.881Z,4.90
2022-12-18T09:36:22.272Z,4.17
2022-12-18T09:38:49.851Z,6.83
2022-12-18T09:41:46.931Z,4.50
2022-12-18T09:44:21.144Z,4.83
2022-12-18T09:46:58.396Z,4.17
2022-12-18T09:49:30.667Z,5.13
2022-12-18T09:52:06.827Z,5.23
2022-12-18T09:54:39.778Z,4.83
2022-12-18T09:57:23.269Z,5.77
2022-12-18T10:00:23.948Z,5.17
2022-12-18T10:02:54.625Z,4.37
2022-12-18T10:05:48.415Z,7.03
2022-12-18T10:08:29.781Z,6.60
2022-12-18T10:11:04.475Z,6.47
2022-12-18T10:13:56.028Z,16.93
2022-12-18T10:16:37.672Z,6.97
2022-12-18T10:19:25.289Z,6.23
2022-12-18T10:22:16.465Z,5.88
2022-12-18T10:25:01.590Z,4.47
2022-12-18T10:27:30.194Z,5.00
2022-12-18T10:29:59.222Z,6.67
2022-12-18T10:32:29.574Z,7.43
2022-12-18T10:35:00.736Z,6.37
2022-12-18T10:37:31.181Z,4.37
2022-12-18T10:40:21.568Z,4.83
2022-12-18T10:43:15.686Z,3.47
2022-12-18T10:45:57.238Z,9.37
2022-12-18T10:48:25.837Z,4.90
2022-12-18T10:51:12.620Z,4.90
2022-12-18T10:53:43.904Z,4.60
2022-12-18T10:56:12.058Z,4.03
2022-12-18T10:58:40.919Z,4.83
2022-12-18T11:01:17.178Z,4.70
2022-12-18T11:04:02.640Z,5.93
2022-12-18T11:06:33.766Z,4.50
2022-12-18T11:09:19.920Z,5.77
2022-12-18T11:11:56.500Z,5.33
2022-12-18T11:14:26.228Z,5.23
2022-12-18T11:17:24.402Z,4.53
2022-12-18T11:19:43.070Z,4.37
2022-12-18T11:22:43.039Z,4.83
2022-12-18T11:25:34.735Z,4.90
2022-12-18T11:28:03.133Z,5.57
2022-12-18T11:30:32.962Z,5.30
2022-12-18T11:33:17.752Z,3.90
2022-12-18T11:35:53.472Z,4.33
2022-12-18T11:38:30.800Z,5.67
2022-12-18T11:41:45.918Z,5.25
2022-12-18T11:44:21.049Z,3.97
2022-12-18T11:47:38.526Z,4.60
2022-12-18T11:50:21.897Z,4.37
2022-12-18T11:52:55.932Z,4.70
2022-12-18T11:55:49.668Z,3.83
2022-12-18T11:58:34.181Z,6.87
2022-12-18T12:01:07.676Z,4.33
2022-12-18T12:04:09.534Z,5.57
2022-12-18T12:07:06.170Z,4.77
2022-12-18T12:09:58.634Z,3.70
2022-12-18T12:13:01.501Z,3.93
2022-12-18T12:15:49.434Z,4.57
2022-12-18T12:18:32.185Z,5.28
2022-12-18T12:21:14.220Z,4.63
2022-12-18T12:24:13.899Z,3.33
2022-12-18T12:26:52.353Z,3.77
2022-12-18T12:29:41.180Z,3.33
2022-12-18T12:32:17.641Z,4.70
2022-12-18T12:35:02.583Z,3.40
2022-12-18T12:37:44.402Z,3.42
2022-12-18T12:40:52.562Z,3.83
2022-12-18T12:43:50.502Z,6.50
2022-12-18T12:46:22.664Z,5.93
2022-12-18T12:48:52.729Z,7.43
2022-12-18T12:51:36.705Z,6.93
2022-12-18T12:54:12.102Z,2.70
2022-12-18T12:56:50.874Z,4.97
2022-12-18T12:59:43.625Z,5.30
2022-12-18T13:02:36.134Z,3.97
2022-12-18T13:05:19.492Z,6.37
2022-12-18T13:07:54.206Z,3.83
2022-12-18T13:10:37.797Z,5.97
2022-12-18T13:13:10.423Z,8.27
2022-12-18T13:15:46.087Z,5.37
2022-12-18T13:18:23.761Z,4.40
2022-12-18T13:21:05.217Z,7.40
2022-12-18T13:23:39.845Z,7.93
2022-12-18T13:26:11.136Z,6.83
2022-12-18T13:28:47.960Z,7.27
2022-12-18T13:31:42.486Z,7.00
2022-12-18T13:34:29.309Z,7.87
2022-12-18T13:37:19.597Z,7.93
2022-12-18T13:39:47.399Z,7.83
2022-12-18T13:42:34.855Z,13.43
2022-12-18T13:45:02.566Z,10.98
2022-12-18T13:47:38.813Z,9.57
2022-12-18T13:50:32.284Z,9.10
2022-12-18T13:53:08.460Z,10.10
2022-12-18T13:55:36.282Z,9.93
2022-12-18T13:58:07.365Z,11.40
2022-12-18T14:00:35.103Z,13.87
2022-12-18T14:03:02.962Z,10.47
2022-12-18T14:05:32.270Z,9.10
2022-12-18T14:08:05.642Z,11.30
2022-12-18T14:10:42.243Z,11.13
2022-12-18T14:13:38.455Z,13.53
2022-12-18T14:16:08.550Z,14.53
2022-12-18T14:18:46.282Z,11.17
2022-12-18T14:21:21.998Z,10.83
2022-12-18T14:23:50.671Z,11.70
2022-12-18T14:26:22.568Z,10.23
2022-12-18T14:28:51.252Z,13.33
2022-12-18T14:31:24.512Z,12.27
2022-12-18T14:33:53.052Z,9.60
2022-12-18T14:36:28.859Z,10.90
2022-12-18T14:38:58.640Z,9.43
2022-12-18T14:41:27.415Z,5.97
2022-12-18T14:43:55.958Z,9.17
2022-12-18T14:46:36.598Z,7.57
2022-12-18T14:49:32.988Z,6.83
2022-12-18T14:52:17.495Z,6.03
2022-12-18T14:54:48.021Z,6.00
2022-12-18T14:57:27.959Z,5.53
2022-12-18T15:00:08.828Z,9.10
2022-12-18T15:02:37.661Z,5.70
2022-12-18T15:05:21.692Z,6.47
2022-12-18T15:07:52.980Z,5.83
2022-12-18T15:10:28.934Z,5.80
2022-12-18T15:12:56.431Z,6.93
2022-12-18T15:15:48.132Z,4.23
2022-12-18T15:18:18.718Z,5.40
2022-12-18T15:21:00.309Z,4.77
2022-12-18T15:23:49.953Z,4.33
2022-12-18T15:26:19.788Z,4.10
2022-12-18T15:28:49.442Z,4.93
2022-12-18T15:31:17.423Z,6.50
2022-12-18T15:33:53.280Z,6.27
2022-12-18T15:36:26.200Z,4.63
2022-12-18T15:39:04.621Z,5.13
2022-12-18T15:41:36.136Z,5.10
2022-12-18T15:44:22.468Z,5.30
2022-12-18T15:46:50.119Z,3.67
2022-12-18T15:49:17.684Z,7.23
2022-12-18T15:51:45.929Z,5.27
2022-12-18T15:54:17.240Z,5.07
2022-12-18T15:57:03.548Z,6.27
2022-12-18T15:59:31.187Z,6.93
2022-12-18T16:01:58.808Z,4.50
2022-12-18T16:04:26.686Z,4.60
2022-12-18T16:09:42.061Z,5.45
2022-12-18T16:12:19.255Z,9.87
2022-12-18T16:14:46.932Z,4.90
2022-12-18T16:17:15.608Z,3.57
2022-12-18T16:19:46.075Z,4.53
2022-12-18T16:22:23.135Z,3.53
2022-12-18T16:24:52.365Z,4.75
2022-12-18T16:27:20.961Z,4.87
2022-12-18T16:29:48.507Z,4.10
2022-12-18T16:32:21.978Z,4.93
2022-12-18T16:34:50.948Z,4.47
2022-12-18T16:37:18.449Z,4.03
2022-12-18T16:39:46.340Z,4.60
2022-12-18T16:42:20.514Z,5.20
2022-12-18T16:44:49.920Z,5.17
2022-12-18T16:47:18.167Z,6.37
2022-12-18T16:49:46.244Z,6.80
2022-12-18T16:52:14.707Z,7.00
2022-12-18T16:54:42.209Z,8.23
2022-12-18T16:57:16.437Z,6.03
2022-12-18T16:59:44.119Z,7.90
2022-12-18T17:02:25.932Z,6.50
2022-12-18T17:04:57.137Z,8.30
2022-12-18T17:07:27.790Z,5.77
2022-12-18T17:09:55.415Z,6.37
2022-12-18T17:12:26.870Z,8.37
2022-12-18T17:14:54.429Z,6.73
2022-12-18T17:17:23.417Z,6.77
2022-12-18T17:19:52.871Z,6.73
2022-12-18T17:22:23.506Z,6.10
2022-12-18T17:24:51.322Z,5.67
2022-12-18T17:27:18.991Z,8.00
2022-12-18T17:29:48.368Z,6.83
2022-12-18T17:32:18.153Z,6.20
2022-12-18T17:34:46.905Z,11.10
2022-12-18T17:37:14.627Z,7.07
2022-12-18T17:39:42.551Z,7.47
2022-12-18T17:42:15.575Z,6.23
2022-12-18T17:44:45.007Z,4.60
2022-12-18T17:47:13.937Z,6.50
2022-12-18T17:49:41.541Z,6.40
2022-12-18T17:52:09.498Z,6.70
2022-12-18T17:54:39.952Z,6.17
2022-12-18T17:57:07.884Z,6.93
2022-12-18T17:59:35.357Z,6.80
2022-12-18T18:02:03.158Z,7.20
2022-12-18T18:04:30.829Z,11.90
2022-12-18T18:06:58.522Z,6.97
2022-12-18T18:09:26.166Z,6.90
2022-12-18T18:12:12.268Z,6.33
2022-12-18T18:14:40.077Z,6.50
2022-12-18T18:17:07.744Z,6.60
2022-12-18T18:19:35.852Z,6.03
2022-12-18T18:22:03.752Z,8.50
2022-12-18T18:24:33.528Z,7.30
2022-12-18T18:27:01.235Z,7.97
2022-12-18T18:29:32.576Z,11.77
2022-12-18T18:32:00.569Z,9.70
2022-12-18T18:34:30.870Z,9.97
2022-12-18T18:37:02.243Z,11.07
2022-12-18T18:39:30.398Z,8.40
2022-12-18T18:41:57.971Z,8.20
2022-12-18T18:44:26.480Z,6.90
2022-12-18T18:46:56.627Z,8.03
2022-12-18T18:49:27.703Z,7.43
2022-12-18T18:51:57.778Z,7.80
2022-12-18T18:54:27.542Z,8.90
2022-12-18T18:57:29.953Z,9.03
2022-12-18T18:59:46.593Z,11.05
2022-12-18T19:02:15.633Z,9.33
2022-12-18T19:04:46.062Z,10.33
2022-12-18T19:07:19.756Z,9.40
2022-12-18T19:10:02.090Z,9.97
2022-12-18T19:12:50.633Z,12.97
2022-12-18T19:15:18.249Z,13.67
2022-12-18T19:17:47.110Z,12.70
2022-12-18T19:20:15.797Z,11.83
2022-12-18T19:22:43.311Z,9.60
2022-12-18T19:25:16.458Z,11.37
2022-12-18T19:27:44.192Z,11.87
2022-12-18T19:30:12.270Z,10.93
2022-12-18T19:32:39.915Z,11.30
2022-12-18T19:35:07.669Z,8.93
2022-12-18T19:37:35.575Z,12.50
2022-12-18T19:40:07.948Z,13.30
2022-12-18T19:42:40.708Z,10.80
2022-12-18T19:45:08.483Z,14.73
2022-12-18T19:47:36.103Z,13.33
2022-12-18T19:50:04.017Z,12.97
2022-12-18T19:52:31.713Z,17.00
2022-12-18T19:54:59.222Z,15.37
2022-12-18T19:57:26.839Z,16.27
2022-12-18T19:59:54.369Z,15.67
2022-12-18T20:02:22.114Z,12.30
2022-12-18T20:04:50.263Z,13.60
2022-12-18T20:07:17.980Z,14.80
2022-12-18T20:09:45.797Z,14.43
2022-12-18T20:12:14.493Z,12.20
2022-12-18T20:14:42.083Z,15.30
2022-12-18T20:17:09.694Z,15.67
2022-12-18T20:19:37.153Z,14.57
2022-12-18T20:22:12.575Z,16.43
2022-12-18T20:24:42.450Z,17.87
2022-12-18T20:27:15.225Z,13.73
2022-12-18T20:29:44.831Z,15.70
2022-12-18T20:32:12.313Z,16.27
2022-12-18T20:34:39.875Z,10.30
2022-12-18T20:37:08.305Z,13.77
2022-12-18T20:39:37.678Z,19.60
2022-12-18T20:42:05.867Z,19.03
2022-12-18T20:44:40.997Z,18.17
2022-12-18T20:47:09.003Z,19.03
2022-12-18T20:49:36.556Z,22.13
2022-12-18T20:52:07.929Z,19.90
2022-12-18T20:54:35.433Z,21.97
2022-12-18T20:57:02.959Z,21.10
2022-12-18T20:59:30.781Z,19.93
2022-12-18T21:01:58.464Z,19.47
2022-12-18T21:04:26.308Z,15.93
2022-12-18T21:06:59.175Z,19.23
2022-12-18T21:09:37.812Z,17.93
2022-12-18T21:12:33.428Z,16.73
2022-12-18T21:15:10.367Z,17.13
2022-12-18T21:17:44.388Z,17.93
2022-12-18T21:20:18.581Z,16.40
2022-12-18T21:22:49.323Z,16.17
2022-12-18T21:25:17.145Z,16.63
2022-12-18T21:27:44.624Z,15.27
2022-12-18T21:30:13.229Z,15.37
2022-12-18T21:32:41.237Z,16.83
2022-12-18T21:35:09.278Z,16.07
2022-12-18T21:37:36.986Z,14.27
2022-12-18T21:40:05.152Z,14.80
2022-12-18T21:42:51.545Z,15.40
2022-12-18T21:45:19.122Z,15.97
2022-12-18T21:47:46.641Z,13.07
2022-12-18T21:50:14.352Z,13.20
2022-12-18T21:52:42.017Z,13.33
2022-12-18T21:55:10.233Z,9.87
2022-12-18T21:57:39.444Z,12.83
2022-12-18T22:00:18.718Z,10.53
2022-12-18T22:02:49.607Z,10.37
2022-12-18T22:05:36.382Z,10.33
2022-12-18T22:08:04.119Z,14.67
2022-12-18T22:10:32.115Z,11.13
2022-12-18T22:12:59.591Z,11.47
2022-12-18T22:15:27.283Z,8.80
2022-12-18T22:17:59.722Z,11.13
2022-12-18T22:20:29.998Z,11.27
2022-12-18T22:22:58.655Z,11.60
2022-12-18T22:25:27.130Z,15.90
2022-12-18T22:28:13.278Z,10.23
2022-12-18T22:30:40.919Z,8.53
2022-12-18T22:33:08.530Z,8.27
2022-12-18T22:35:38.413Z,8.43
2022-12-18T22:38:09.508Z,9.53
2022-12-18T22:40:37.095Z,9.23
2022-12-18T22:43:04.602Z,9.17
2022-12-18T22:45:32.143Z,7.40
2022-12-18T22:48:01.685Z,6.57
2022-12-18T22:50:29.334Z,8.43
2022-12-18T22:52:56.867Z,6.97
2022-12-18T22:55:24.311Z,7.30
2022-12-18T22:57:54.591Z,7.43
2022-12-18T23:00:24.560Z,7.77
2022-12-18T23:02:59.947Z,7.33
2022-12-18T23:05:31.847Z,6.83
2022-12-18T23:07:59.686Z,7.40
2022-12-18T23:10:28.598Z,7.93
2022-12-18T23:12:56.072Z,4.87
2022-12-18T23:15:28.281Z,5.97
2022-12-18T23:17:57.854Z,4.67
2022-12-18T23:20:29.249Z,6.57
2022-12-18T23:22:56.803Z,6.77
2022-12-18T23:25:24.421Z,9.23
2022-12-18T23:27:52.022Z,5.27
2022-12-18T23:30:19.573Z,5.57
2022-12-18T23:32:47.213Z,5.53
2022-12-18T23:35:15.820Z,7.07
2022-12-18T23:38:00.655Z,4.60
2022-12-18T23:40:29.965Z,4.40
2022-12-18T23:42:59.394Z,5.63
2022-12-18T23:45:26.891Z,5.83
2022-12-18T23:47:54.394Z,4.33
2022-12-18T23:50:28.941Z,5.20
2022-12-18T23:53:04.710Z,3.67
2022-12-18T23:55:34.044Z,5.67
2022-12-18T23:58:01.488Z,3.93
